Time;durP1;ratioP1;P1;durP2;ratioP2;P2;SDS_P1;SDS_P2;PMS_P1;PMS_P2;Temp;Humidity;BMP_temperature;BMP_pressure;BME280_temperature;BME280_humidity;BME280_pressure;Samples;Min_cycle;Max_cycle;Signal;HPM_P1;HPM_P2
2022/03/29 00:01:48;;;;;;;14.37;11.30;;;;;;;;;;4996901;28;20934;-70
2022/03/29 00:04:13;;;;;;;13.63;11.87;;;;;;;;;;4998599;28;20530;-70
2022/03/29 00:06:38;;;;;;;15.13;12.10;;;;;;;;;;4993804;28;20580;-70
2022/03/29 00:09:04;;;;;;;17.17;12.10;;;;;;;;;;4993694;28;20541;-70
2022/03/29 00:11:29;;;;;;;14.87;11.43;;;;;;;;;;4999971;28;20185;-69
2022/03/29 00:13:54;;;;;;;13.93;11.27;;;;;;;;;;4998227;28;20315;-70
2022/03/29 00:16:20;;;;;;;17.57;11.67;;;;;;;;;;5010406;28;20216;-69
2022/03/29 00:18:45;;;;;;;15.37;12.17;;;;;;;;;;4997563;28;20243;-69
2022/03/29 00:21:10;;;;;;;15.60;11.70;;;;;;;;;;5000520;28;20211;-69
2022/03/29 00:23:36;;;;;;;15.10;10.90;;;;;;;;;;4997275;28;20280;-70
2022/03/29 00:26:02;;;;;;;15.10;11.63;;;;;;;;;;4999097;28;20216;-70
2022/03/29 00:28:28;;;;;;;16.97;13.10;;;;;;;;;;4997931;28;20707;-70
2022/03/29 00:30:53;;;;;;;19.30;13.60;;;;;;;;;;4997968;28;20469;-71
2022/03/29 00:33:18;;;;;;;18.70;12.33;;;;;;;;;;5008274;22;20247;-71
2022/03/29 00:35:43;;;;;;;17.80;13.20;;;;;;;;;;4993747;28;20276;-71
2022/03/29 00:38:08;;;;;;;19.33;13.30;;;;;;;;;;4994759;28;20265;-72
2022/03/29 00:40:34;;;;;;;20.93;14.00;;;;;;;;;;4996023;28;20272;-71
2022/03/29 00:42:59;;;;;;;19.37;14.50;;;;;;;;;;4999657;28;20292;-71
2022/03/29 00:45:24;;;;;;;20.90;13.00;;;;;;;;;;4992129;28;20366;-71
2022/03/29 00:47:49;;;;;;;20.40;13.87;;;;;;;;;;4994529;28;20184;-71
2022/03/29 00:50:15;;;;;;;21.43;13.50;;;;;;;;;;4991652;28;20185;-71
2022/03/29 00:52:40;;;;;;;18.93;13.57;;;;;;;;;;4995022;28;20204;-71
2022/03/29 00:55:06;;;;;;;19.60;13.60;;;;;;;;;;4998007;28;20239;-72
2022/03/29 00:57:32;;;;;;;18.77;13.33;;;;;;;;;;4998990;28;20185;-70
2022/03/29 00:59:58;;;;;;;19.03;13.40;;;;;;;;;;4997734;28;20995;-73
2022/03/29 01:02:23;;;;;;;19.27;13.57;;;;;;;;;;4996728;28;20428;-72
2022/03/29 01:04:49;;;;;;;17.77;13.60;;;;;;;;;;4995109;28;20502;-72
2022/03/29 01:07:14;;;;;;;17.40;14.23;;;;;;;;;;4998007;28;20216;-72
2022/03/29 01:09:40;;;;;;;20.37;13.50;;;;;;;;;;5013896;28;20180;-71
2022/03/29 01:12:05;;;;;;;19.30;13.00;;;;;;;;;;4993863;28;20185;-71
2022/03/29 01:14:31;;;;;;;16.13;12.93;;;;;;;;;;4996304;28;20296;-71
2022/03/29 01:19:42;;;;;;;17.30;13.67;;;;;;;;;;4996838;28;20180;-71
2022/03/29 01:22:09;;;;;;;20.50;13.77;;;;;;;;;;4995785;28;22712;-71
2022/03/29 01:24:35;;;;;;;20.67;12.60;;;;;;;;;;4999991;28;20455;-72
2022/03/29 01:27:01;;;;;;;15.53;12.27;;;;;;;;;;4996477;28;20929;-71
2022/03/29 01:29:28;;;;;;;16.40;12.57;;;;;;;;;;5001821;28;20440;-71
2022/03/29 01:31:53;;;;;;;17.40;12.77;;;;;;;;;;4998849;28;20440;-71
2022/03/29 01:34:19;;;;;;;18.13;13.77;;;;;;;;;;4984200;28;20476;-72
2022/03/29 01:36:45;;;;;;;17.27;12.80;;;;;;;;;;5000767;28;20196;-72
2022/03/29 01:39:10;;;;;;;20.33;14.30;;;;;;;;;;5004116;28;20447;-70
2022/03/29 01:41:37;;;;;;;17.53;13.80;;;;;;;;;;5005786;28;20642;-71
2022/03/29 01:44:03;;;;;;;18.73;13.70;;;;;;;;;;4999812;28;20262;-71
2022/03/29 01:46:28;;;;;;;17.70;13.00;;;;;;;;;;5000308;28;20558;-71
2022/03/29 01:48:54;;;;;;;20.53;13.30;;;;;;;;;;5005651;28;20181;-72
2022/03/29 01:51:19;;;;;;;17.47;12.90;;;;;;;;;;5004461;28;20239;-72
2022/03/29 01:53:47;;;;;;;18.93;12.90;;;;;;;;;;5001049;28;20224;-72
2022/03/29 01:56:13;;;;;;;15.73;12.63;;;;;;;;;;5004980;28;20185;-71
2022/03/29 01:58:38;;;;;;;19.80;13.60;;;;;;;;;;5002332;28;20448;-71
2022/03/29 02:01:03;;;;;;;18.73;12.30;;;;;;;;;;5005352;28;20484;-71
2022/03/29 02:03:29;;;;;;;21.97;14.47;;;;;;;;;;4991987;28;20213;-71
2022/03/29 02:05:54;;;;;;;19.67;13.27;;;;;;;;;;4999636;28;20208;-72
2022/03/29 02:08:20;;;;;;;17.10;12.30;;;;;;;;;;5004684;28;20216;-72
2022/03/29 02:10:45;;;;;;;22.13;14.33;;;;;;;;;;4997884;28;20817;-71
2022/03/29 02:13:10;;;;;;;20.17;12.40;;;;;;;;;;5002550;28;20200;-71
2022/03/29 02:15:39;;;;;;;18.57;14.27;;;;;;;;;;5000764;28;21737;-72
2022/03/29 02:18:05;;;;;;;21.00;14.17;;;;;;;;;;5005037;28;20178;-71
2022/03/29 02:20:30;;;;;;;17.80;12.97;;;;;;;;;;5003085;28;20440;-70
2022/03/29 02:23:00;;;;;;;23.30;13.73;;;;;;;;;;5001004;28;20525;-72
2022/03/29 02:25:25;;;;;;;20.90;12.97;;;;;;;;;;4999465;28;20193;-71
2022/03/29 02:27:51;;;;;;;19.53;13.20;;;;;;;;;;4999240;28;20420;-71
2022/03/29 02:30:16;;;;;;;19.40;13.67;;;;;;;;;;5001387;28;20177;-72
2022/03/29 02:32:42;;;;;;;19.70;13.67;;;;;;;;;;5003257;28;20210;-71
2022/03/29 02:35:08;;;;;;;18.70;13.17;;;;;;;;;;4998499;28;20177;-72
2022/03/29 02:37:33;;;;;;;18.63;13.50;;;;;;;;;;5005513;28;20239;-71
2022/03/29 02:39:58;;;;;;;21.93;13.70;;;;;;;;;;4994782;28;20193;-72
2022/03/29 02:42:24;;;;;;;21.10;14.40;;;;;;;;;;5004107;28;20185;-72
2022/03/29 02:44:49;;;;;;;16.57;13.37;;;;;;;;;;5010819;28;20197;-71
2022/03/29 02:47:14;;;;;;;22.13;14.80;;;;;;;;;;5002571;28;20235;-71
2022/03/29 02:49:39;;;;;;;22.27;15.00;;;;;;;;;;5003266;28;20279;-71
2022/03/29 02:52:05;;;;;;;21.97;13.80;;;;;;;;;;5000653;28;20178;-71
2022/03/29 02:54:30;;;;;;;19.30;14.03;;;;;;;;;;5001422;28;20238;-72
2022/03/29 02:56:56;;;;;;;20.93;14.10;;;;;;;;;;5004506;28;20272;-72
2022/03/29 02:59:21;;;;;;;16.13;12.33;;;;;;;;;;5002989;28;20181;-71
2022/03/29 03:01:46;;;;;;;17.47;12.73;;;;;;;;;;5003538;28;20626;-71
2022/03/29 03:04:14;;;;;;;20.00;13.30;;;;;;;;;;5003503;28;20303;-71
2022/03/29 03:06:40;;;;;;;19.10;13.00;;;;;;;;;;5002871;28;20205;-70
2022/03/29 03:09:06;;;;;;;21.90;13.87;;;;;;;;;;4999963;28;20436;-71
2022/03/29 03:11:31;;;;;;;19.97;13.30;;;;;;;;;;5003348;28;20442;-71
2022/03/29 03:13:57;;;;;;;20.43;13.93;;;;;;;;;;5004355;28;20200;-72
2022/03/29 03:16:22;;;;;;;17.87;12.00;;;;;;;;;;4999358;28;20646;-71
2022/03/29 03:18:47;;;;;;;19.10;12.80;;;;;;;;;;5000039;28;20877;-72
2022/03/29 03:21:12;;;;;;;18.50;13.10;;;;;;;;;;5002837;28;20181;-72
2022/03/29 03:23:38;;;;;;;16.87;12.17;;;;;;;;;;5000543;28;20208;-71
2022/03/29 03:26:03;;;;;;;18.00;12.90;;;;;;;;;;4999918;28;20193;-71
2022/03/29 03:28:28;;;;;;;20.80;13.57;;;;;;;;;;5004910;28;20250;-71
2022/03/29 03:30:54;;;;;;;18.70;12.80;;;;;;;;;;5002032;28;20744;-71
2022/03/29 03:33:20;;;;;;;19.30;15.17;;;;;;;;;;5000728;28;20287;-71
2022/03/29 03:35:45;;;;;;;19.50;14.30;;;;;;;;;;5000920;28;20654;-71
2022/03/29 03:38:10;;;;;;;19.60;14.03;;;;;;;;;;5002522;28;20185;-71
2022/03/29 03:40:36;;;;;;;21.73;14.27;;;;;;;;;;4998298;28;20235;-71
2022/03/29 03:43:03;;;;;;;24.33;14.77;;;;;;;;;;5003023;28;20199;-73
2022/03/29 03:45:28;;;;;;;19.73;14.40;;;;;;;;;;5001245;28;20197;-71
2022/03/29 03:47:53;;;;;;;26.63;13.30;;;;;;;;;;4999762;28;20498;-71
2022/03/29 03:50:19;;;;;;;21.37;12.57;;;;;;;;;;4998682;28;20186;-71
2022/03/29 03:52:45;;;;;;;17.00;12.70;;;;;;;;;;4991043;28;20477;-71
2022/03/29 03:55:10;;;;;;;17.67;13.20;;;;;;;;;;4999204;28;20834;-71
2022/03/29 03:57:36;;;;;;;22.77;14.40;;;;;;;;;;5016785;28;20303;-70
2022/03/29 04:00:01;;;;;;;18.77;14.40;;;;;;;;;;5001117;28;20181;-71
2022/03/29 04:02:26;;;;;;;17.53;13.50;;;;;;;;;;4998833;28;20228;-71
2022/03/29 04:04:52;;;;;;;17.60;13.23;;;;;;;;;;4996663;28;20234;-71
2022/03/29 04:07:18;;;;;;;18.50;13.03;;;;;;;;;;4997925;28;20177;-72
2022/03/29 04:09:43;;;;;;;16.90;12.90;;;;;;;;;;5000729;28;20468;-71
2022/03/29 04:12:09;;;;;;;19.83;13.40;;;;;;;;;;5000171;28;21087;-72
2022/03/29 04:14:34;;;;;;;19.70;13.63;;;;;;;;;;4998837;28;20593;-71
2022/03/29 04:17:00;;;;;;;20.20;12.97;;;;;;;;;;4997273;28;20181;-72
2022/03/29 04:19:25;;;;;;;14.77;12.20;;;;;;;;;;4996027;28;20184;-73
2022/03/29 04:21:50;;;;;;;18.43;12.43;;;;;;;;;;4995737;28;20186;-73
2022/03/29 04:24:15;;;;;;;19.00;12.90;;;;;;;;;;4995870;28;20216;-73
2022/03/29 04:26:41;;;;;;;20.60;13.57;;;;;;;;;;4988202;28;20201;-73
2022/03/29 04:29:06;;;;;;;21.03;13.37;;;;;;;;;;4994459;28;20177;-71
2022/03/29 04:31:32;;;;;;;17.93;13.33;;;;;;;;;;4995395;28;20177;-71
2022/03/29 04:33:58;;;;;;;18.47;13.13;;;;;;;;;;5012539;28;20213;-71
2022/03/29 04:36:24;;;;;;;19.30;14.17;;;;;;;;;;5002599;28;20672;-71
2022/03/29 04:38:50;;;;;;;16.13;13.67;;;;;;;;;;4993608;28;20436;-72
2022/03/29 04:41:15;;;;;;;16.07;12.23;;;;;;;;;;4996592;28;20531;-71
2022/03/29 04:43:40;;;;;;;18.60;13.20;;;;;;;;;;4996753;28;20197;-71
2022/03/29 04:46:06;;;;;;;24.67;13.90;;;;;;;;;;4999997;28;20190;-71
2022/03/29 04:48:32;;;;;;;17.23;12.40;;;;;;;;;;4996112;28;20188;-70
2022/03/29 04:50:57;;;;;;;19.00;12.87;;;;;;;;;;4997579;28;20428;-71
2022/03/29 04:53:23;;;;;;;20.83;13.10;;;;;;;;;;4999064;28;20207;-71
2022/03/29 04:55:50;;;;;;;19.90;13.47;;;;;;;;;;4997956;28;20165;-71
2022/03/29 04:58:15;;;;;;;16.90;13.23;;;;;;;;;;4999304;28;21194;-71
2022/03/29 05:00:41;;;;;;;19.63;13.87;;;;;;;;;;5002448;28;20460;-72
2022/03/29 05:03:06;;;;;;;20.70;13.07;;;;;;;;;;5001202;28;20200;-70
2022/03/29 05:05:31;;;;;;;20.13;13.00;;;;;;;;;;5002156;28;20673;-72
2022/03/29 05:07:56;;;;;;;22.43;13.63;;;;;;;;;;5005235;28;20173;-71
2022/03/29 05:10:21;;;;;;;19.80;12.97;;;;;;;;;;4995006;28;20193;-72
2022/03/29 05:12:48;;;;;;;23.40;14.37;;;;;;;;;;4998657;28;20196;-71
2022/03/29 05:15:14;;;;;;;20.07;13.80;;;;;;;;;;4999430;28;21396;-70
2022/03/29 05:17:40;;;;;;;21.63;14.10;;;;;;;;;;4995944;28;20431;-71
2022/03/29 05:20:06;;;;;;;18.97;14.13;;;;;;;;;;4992438;28;20435;-71
2022/03/29 05:22:31;;;;;;;18.83;13.50;;;;;;;;;;4995927;28;20181;-71
2022/03/29 05:24:57;;;;;;;20.00;14.17;;;;;;;;;;4984012;28;20510;-71
2022/03/29 05:27:22;;;;;;;24.03;14.17;;;;;;;;;;5014827;28;20192;-72
2022/03/29 05:29:47;;;;;;;15.93;13.00;;;;;;;;;;4994674;28;20187;-71
2022/03/29 05:32:18;;;;;;;18.97;13.67;;;;;;;;;;4992176;28;20268;-73
2022/03/29 05:34:43;;;;;;;19.77;13.60;;;;;;;;;;5005276;28;20205;-72
2022/03/29 05:37:08;;;;;;;21.53;12.90;;;;;;;;;;4997620;28;20454;-71
2022/03/29 05:39:34;;;;;;;18.93;13.10;;;;;;;;;;4996230;28;20189;-74
2022/03/29 05:41:59;;;;;;;21.43;12.87;;;;;;;;;;4994715;28;20792;-72
2022/03/29 05:44:24;;;;;;;17.37;12.37;;;;;;;;;;4995546;28;20209;-71
2022/03/29 05:49:34;;;;;;;15.63;11.30;;;;;;;;;;4995568;28;20254;-72
2022/03/29 05:51:59;;;;;;;19.60;11.57;;;;;;;;;;4995362;28;20920;-73
2022/03/29 05:54:24;;;;;;;17.27;10.63;;;;;;;;;;4995122;28;20229;-71
2022/03/29 05:56:50;;;;;;;18.00;9.30;;;;;;;;;;4999429;28;20188;-71
2022/03/29 05:59:15;;;;;;;16.03;9.07;;;;;;;;;;4997106;28;20193;-71
2022/03/29 06:01:40;;;;;;;13.97;9.03;;;;;;;;;;4990417;28;20325;-72
2022/03/29 06:04:06;;;;;;;19.13;9.03;;;;;;;;;;4993460;28;20205;-71
2022/03/29 06:06:33;;;;;;;18.93;8.63;;;;;;;;;;4991319;28;20560;-71
2022/03/29 06:09:00;;;;;;;15.30;7.20;;;;;;;;;;4986379;28;21230;-72
2022/03/29 06:11:26;;;;;;;16.37;8.80;;;;;;;;;;4987824;28;20435;-72
2022/03/29 06:13:51;;;;;;;13.33;7.40;;;;;;;;;;4992058;28;20464;-72
2022/03/29 06:16:16;;;;;;;18.30;7.50;;;;;;;;;;4995856;28;20185;-71
2022/03/29 06:18:42;;;;;;;16.60;7.33;;;;;;;;;;4993863;28;20682;-72
2022/03/29 06:21:07;;;;;;;16.13;6.70;;;;;;;;;;4993256;28;20235;-71
2022/03/29 06:23:34;;;;;;;11.43;6.90;;;;;;;;;;4994996;28;20960;-72
2022/03/29 06:25:59;;;;;;;11.77;6.33;;;;;;;;;;4991240;28;20229;-73
2022/03/29 06:28:24;;;;;;;14.90;7.30;;;;;;;;;;4992789;28;20535;-71
2022/03/29 06:30:50;;;;;;;18.87;7.57;;;;;;;;;;4995628;28;20189;-72
2022/03/29 06:33:16;;;;;;;13.77;6.83;;;;;;;;;;5006925;23;20647;-73
2022/03/29 06:35:41;;;;;;;14.63;7.37;;;;;;;;;;4996021;28;20212;-74
2022/03/29 06:38:07;;;;;;;17.43;7.07;;;;;;;;;;4998572;28;20198;-74
2022/03/29 06:40:33;;;;;;;14.77;6.97;;;;;;;;;;4991070;28;20185;-74
2022/03/29 06:42:58;;;;;;;13.87;6.43;;;;;;;;;;4992714;28;20541;-74
2022/03/29 06:45:24;;;;;;;15.07;7.23;;;;;;;;;;4991751;28;20232;-74
2022/03/29 06:47:50;;;;;;;18.50;8.60;;;;;;;;;;4995028;28;20659;-74
2022/03/29 06:50:15;;;;;;;17.70;7.70;;;;;;;;;;4993146;28;20495;-72
2022/03/29 06:52:42;;;;;;;13.43;8.00;;;;;;;;;;4997235;28;20292;-74
2022/03/29 06:55:08;;;;;;;16.37;7.70;;;;;;;;;;4996971;28;20566;-74
2022/03/29 06:57:33;;;;;;;13.83;8.10;;;;;;;;;;5010783;28;20895;-74
2022/03/29 06:59:59;;;;;;;12.93;8.13;;;;;;;;;;4998174;28;20451;-75
2022/03/29 07:02:24;;;;;;;12.50;7.43;;;;;;;;;;4989558;28;20189;-74
2022/03/29 07:04:50;;;;;;;16.53;7.77;;;;;;;;;;4987781;28;20209;-75
2022/03/29 07:07:15;;;;;;;15.00;7.47;;;;;;;;;;4991623;28;20763;-74
2022/03/29 07:12:24;;;;;;;17.47;8.17;;;;;;;;;;4989673;28;20240;-75
2022/03/29 07:14:50;;;;;;;13.97;7.30;;;;;;;;;;4988519;28;20542;-75
2022/03/29 07:17:17;;;;;;;15.40;6.33;;;;;;;;;;4991544;28;20279;-74
2022/03/29 07:19:42;;;;;;;12.53;5.90;;;;;;;;;;4991234;28;20188;-75
2022/03/29 07:22:08;;;;;;;11.63;5.40;;;;;;;;;;4995905;28;20428;-75
2022/03/29 07:24:33;;;;;;;14.40;6.33;;;;;;;;;;4997746;28;20201;-74
2022/03/29 07:26:58;;;;;;;13.07;6.20;;;;;;;;;;4994755;28;20200;-74
2022/03/29 07:29:25;;;;;;;15.63;6.03;;;;;;;;;;4996221;28;20956;-74
2022/03/29 07:31:51;;;;;;;16.23;6.13;;;;;;;;;;4994170;28;20181;-74
2022/03/29 07:34:16;;;;;;;13.50;5.73;;;;;;;;;;4995978;28;20521;-74
2022/03/29 07:36:41;;;;;;;14.17;5.63;;;;;;;;;;4995036;28;20541;-75
2022/03/29 07:39:07;;;;;;;9.20;5.60;;;;;;;;;;4994623;28;20661;-75
2022/03/29 07:41:32;;;;;;;15.50;6.40;;;;;;;;;;4996222;28;20865;-74
2022/03/29 07:43:58;;;;;;;9.80;5.27;;;;;;;;;;4997335;28;20205;-75
2022/03/29 07:46:23;;;;;;;13.40;6.03;;;;;;;;;;4995874;28;20205;-74
2022/03/29 07:48:49;;;;;;;10.13;5.40;;;;;;;;;;4988898;28;20185;-74
2022/03/29 07:51:15;;;;;;;13.33;6.70;;;;;;;;;;5006879;28;20173;-74
2022/03/29 07:53:41;;;;;;;16.20;5.70;;;;;;;;;;4984968;28;20240;-75
2022/03/29 07:56:07;;;;;;;10.60;4.70;;;;;;;;;;4991794;28;20550;-75
2022/03/29 07:58:32;;;;;;;13.50;5.07;;;;;;;;;;4992743;28;20189;-75
2022/03/29 08:00:57;;;;;;;13.90;4.57;;;;;;;;;;4990643;28;20189;-75
2022/03/29 08:03:22;;;;;;;12.53;3.77;;;;;;;;;;4995350;28;20230;-75
2022/03/29 08:05:48;;;;;;;13.37;3.97;;;;;;;;;;4990436;28;20240;-75
2022/03/29 08:08:15;;;;;;;13.20;4.53;;;;;;;;;;4994719;28;20192;-75
2022/03/29 08:10:41;;;;;;;13.90;4.93;;;;;;;;;;4989845;28;20428;-75
2022/03/29 08:13:07;;;;;;;9.30;4.50;;;;;;;;;;4991138;28;20448;-75
2022/03/29 08:15:32;;;;;;;13.47;4.20;;;;;;;;;;4994810;28;20432;-75
2022/03/29 08:17:58;;;;;;;9.07;3.80;;;;;;;;;;4989483;28;21104;-75
2022/03/29 08:20:24;;;;;;;11.00;4.23;;;;;;;;;;4991508;28;20192;-75
2022/03/29 08:22:49;;;;;;;11.50;3.83;;;;;;;;;;4991711;28;20200;-75
2022/03/29 08:25:15;;;;;;;12.50;4.03;;;;;;;;;;4993788;28;20193;-75
2022/03/29 08:27:41;;;;;;;11.30;4.17;;;;;;;;;;4993539;28;20182;-75
2022/03/29 08:30:07;;;;;;;9.47;3.47;;;;;;;;;;4982891;28;20209;-75
2022/03/29 08:33:04;;;;;;;15.00;4.30;;;;;;;;;;4987964;28;20642;-75
2022/03/29 08:35:30;;;;;;;11.80;4.70;;;;;;;;;;4979893;28;20444;-75
2022/03/29 08:37:55;;;;;;;8.93;3.63;;;;;;;;;;4988682;28;20502;-75
2022/03/29 08:40:26;;;;;;;11.60;3.50;;;;;;;;;;4991971;28;20463;-75
2022/03/29 08:45:59;;;;;;;10.87;3.77;;;;;;;;;;4976377;28;20881;-75
2022/03/29 08:48:25;;;;;;;12.73;4.33;;;;;;;;;;4992498;28;20435;-75
2022/03/29 08:50:51;;;;;;;9.00;3.33;;;;;;;;;;4988809;28;20184;-75
2022/03/29 08:53:17;;;;;;;9.83;3.00;;;;;;;;;;4992993;28;20479;-75
2022/03/29 08:55:44;;;;;;;8.80;3.60;;;;;;;;;;4991203;28;20944;-75
2022/03/29 08:58:09;;;;;;;11.93;3.63;;;;;;;;;;4988707;28;20193;-75
2022/03/29 09:00:35;;;;;;;11.27;3.23;;;;;;;;;;4991219;28;20443;-75
2022/03/29 09:03:00;;;;;;;9.73;3.83;;;;;;;;;;4989304;28;20205;-75
2022/03/29 09:05:27;;;;;;;7.00;3.30;;;;;;;;;;4992064;28;20202;-75
2022/03/29 09:07:56;;;;;;;12.27;4.13;;;;;;;;;;4989100;28;20189;-73
2022/03/29 09:10:23;;;;;;;12.13;4.10;;;;;;;;;;4992472;28;20444;-75
2022/03/29 09:12:49;;;;;;;14.70;4.60;;;;;;;;;;4987403;28;20447;-75
2022/03/29 09:15:14;;;;;;;9.27;4.23;;;;;;;;;;4990504;28;21120;-75
2022/03/29 09:17:40;;;;;;;9.13;3.77;;;;;;;;;;4984833;28;20539;-73
2022/03/29 09:20:10;;;;;;;11.03;4.37;;;;;;;;;;4981887;28;21046;-72
2022/03/29 09:22:40;;;;;;;7.73;3.20;;;;;;;;;;4988140;28;20450;-75
2022/03/29 09:25:06;;;;;;;7.43;3.60;;;;;;;;;;4985216;28;20971;-73
2022/03/29 09:27:47;;;;;;;7.33;3.43;;;;;;;;;;4987863;28;20447;-73
2022/03/29 09:30:12;;;;;;;11.33;3.90;;;;;;;;;;4994850;28;20428;-73
2022/03/29 09:32:53;;;;;;;8.20;4.17;;;;;;;;;;5007949;28;20450;-73
2022/03/29 09:35:19;;;;;;;8.00;3.93;;;;;;;;;;4992128;28;20184;-73
2022/03/29 09:37:45;;;;;;;9.27;4.40;;;;;;;;;;4983412;28;20443;-74
2022/03/29 09:40:11;;;;;;;10.33;3.70;;;;;;;;;;4983309;28;20996;-74
2022/03/29 09:42:37;;;;;;;9.60;3.77;;;;;;;;;;4990173;28;20531;-73
2022/03/29 09:45:02;;;;;;;11.50;4.30;;;;;;;;;;4990932;28;20461;-74
2022/03/29 09:47:29;;;;;;;9.17;4.50;;;;;;;;;;4992187;28;20299;-73
2022/03/29 09:49:59;;;;;;;11.60;4.33;;;;;;;;;;4981976;28;20366;-73
2022/03/29 09:52:28;;;;;;;11.20;4.30;;;;;;;;;;4994807;28;20853;-73
2022/03/29 09:55:15;;;;;;;10.30;4.77;;;;;;;;;;4988808;28;20471;-73
2022/03/29 09:57:47;;;;;;;8.10;3.97;;;;;;;;;;4993293;28;20851;-74
2022/03/29 10:00:14;;;;;;;8.80;3.97;;;;;;;;;;4990978;28;20474;-74
2022/03/29 10:02:45;;;;;;;14.07;5.10;;;;;;;;;;4991956;28;20440;-74
2022/03/29 10:05:10;;;;;;;12.60;6.40;;;;;;;;;;4990291;28;20428;-74
2022/03/29 10:07:41;;;;;;;12.07;4.90;;;;;;;;;;4995431;28;20806;-74
2022/03/29 10:10:07;;;;;;;13.60;5.20;;;;;;;;;;4994615;28;20273;-74
2022/03/29 10:12:33;;;;;;;13.70;5.07;;;;;;;;;;4997946;28;20439;-75
2022/03/29 10:14:58;;;;;;;11.27;5.33;;;;;;;;;;4996710;28;20470;-72
2022/03/29 10:17:25;;;;;;;9.77;4.90;;;;;;;;;;4989399;28;20534;-72
2022/03/29 10:19:50;;;;;;;9.90;4.90;;;;;;;;;;4994382;28;20196;-71
2022/03/29 10:22:15;;;;;;;8.57;4.63;;;;;;;;;;4993708;28;20440;-73
2022/03/29 10:24:41;;;;;;;12.57;4.70;;;;;;;;;;4996422;28;20204;-72
2022/03/29 10:27:07;;;;;;;9.70;5.10;;;;;;;;;;4989107;28;20676;-73
2022/03/29 10:29:32;;;;;;;9.40;4.90;;;;;;;;;;4994043;28;20240;-73
2022/03/29 10:32:02;;;;;;;13.50;5.43;;;;;;;;;;4991648;28;27169;-74
2022/03/29 10:34:30;;;;;;;12.97;5.40;;;;;;;;;;4989928;28;20259;-74
2022/03/29 10:37:03;;;;;;;14.80;4.87;;;;;;;;;;4994886;28;20448;-74
2022/03/29 10:39:42;;;;;;;9.73;4.13;;;;;;;;;;4992645;28;20747;-73
2022/03/29 10:42:26;;;;;;;12.60;5.27;;;;;;;;;;4996490;28;20531;-73
2022/03/29 10:44:58;;;;;;;14.37;4.93;;;;;;;;;;4989978;28;20494;-74
2022/03/29 10:47:28;;;;;;;8.03;4.10;;;;;;;;;;4996769;28;20456;-72
2022/03/29 10:49:53;;;;;;;12.97;5.00;;;;;;;;;;4997580;28;20432;-73
2022/03/29 10:52:21;;;;;;;18.27;4.93;;;;;;;;;;4994930;28;20443;-73
2022/03/29 10:54:47;;;;;;;11.50;4.40;;;;;;;;;;4996056;28;20699;-74
2022/03/29 10:57:20;;;;;;;11.23;4.57;;;;;;;;;;4995260;28;20439;-73
2022/03/29 10:59:49;;;;;;;10.00;5.00;;;;;;;;;;4991838;28;20191;-72
2022/03/29 11:02:16;;;;;;;11.07;4.47;;;;;;;;;;4995287;28;20440;-72
2022/03/29 11:04:59;;;;;;;10.93;4.80;;;;;;;;;;4991548;28;21011;-72
2022/03/29 11:07:25;;;;;;;9.50;4.30;;;;;;;;;;4990227;28;20466;-72
2022/03/29 11:10:06;;;;;;;11.00;4.90;;;;;;;;;;4993498;28;20440;-71
2022/03/29 11:12:35;;;;;;;18.40;5.73;;;;;;;;;;4983821;28;20189;-74
2022/03/29 11:15:00;;;;;;;8.00;4.37;;;;;;;;;;4988737;28;21237;-74
2022/03/29 11:17:28;;;;;;;16.23;5.80;;;;;;;;;;4991325;28;20720;-74
2022/03/29 11:19:56;;;;;;;9.40;4.80;;;;;;;;;;4995372;28;20177;-74
2022/03/29 11:22:21;;;;;;;9.50;4.70;;;;;;;;;;4993563;28;21453;-73
2022/03/29 11:24:48;;;;;;;17.67;6.00;;;;;;;;;;4989659;28;20468;-73
2022/03/29 11:27:19;;;;;;;14.77;6.40;;;;;;;;;;4989886;28;20216;-72
2022/03/29 11:29:45;;;;;;;12.27;5.70;;;;;;;;;;4991287;28;20436;-72
2022/03/29 11:32:17;;;;;;;10.67;4.97;;;;;;;;;;4991896;28;20433;-72
2022/03/29 11:34:42;;;;;;;10.97;5.03;;;;;;;;;;4990557;28;20279;-72
2022/03/29 11:37:08;;;;;;;12.60;5.80;;;;;;;;;;4983875;28;20443;-72
2022/03/29 11:39:33;;;;;;;14.77;5.63;;;;;;;;;;4986966;28;20189;-72
2022/03/29 11:41:59;;;;;;;12.60;5.07;;;;;;;;;;4989596;28;20193;-72
2022/03/29 11:44:25;;;;;;;12.03;4.80;;;;;;;;;;4993953;28;20292;-72
2022/03/29 11:46:55;;;;;;;8.60;4.30;;;;;;;;;;4994454;28;20303;-72
2022/03/29 11:49:21;;;;;;;33.07;8.07;;;;;;;;;;4989222;28;20427;-73
2022/03/29 11:52:07;;;;;;;23.70;6.63;;;;;;;;;;4992952;28;20441;-73
2022/03/29 11:54:37;;;;;;;8.87;4.57;;;;;;;;;;4995525;28;20456;-73
2022/03/29 11:57:12;;;;;;;12.30;5.60;;;;;;;;;;4997568;28;20921;-73
2022/03/29 11:59:37;;;;;;;11.77;5.77;;;;;;;;;;4995099;28;21027;-73
2022/03/29 12:02:03;;;;;;;9.97;5.47;;;;;;;;;;4993661;28;20432;-73
2022/03/29 12:04:31;;;;;;;14.60;6.00;;;;;;;;;;4994076;28;20204;-73
2022/03/29 12:06:57;;;;;;;13.30;5.47;;;;;;;;;;4990360;28;20470;-73
2022/03/29 12:09:23;;;;;;;12.70;5.73;;;;;;;;;;4994124;28;20431;-73
2022/03/29 12:11:48;;;;;;;11.10;5.47;;;;;;;;;;4995015;28;20552;-74
2022/03/29 12:14:18;;;;;;;11.60;5.50;;;;;;;;;;5010322;28;20452;-73
2022/03/29 12:16:43;;;;;;;7.93;4.50;;;;;;;;;;4995352;28;20192;-73
2022/03/29 12:19:13;;;;;;;14.70;5.77;;;;;;;;;;4992801;28;20444;-73
2022/03/29 12:21:38;;;;;;;11.70;4.83;;;;;;;;;;4994947;28;20184;-73
2022/03/29 12:24:08;;;;;;;10.20;5.53;;;;;;;;;;4992885;28;20962;-73
2022/03/29 12:26:35;;;;;;;11.20;5.30;;;;;;;;;;4996379;28;20460;-73
2022/03/29 12:29:00;;;;;;;8.57;4.20;;;;;;;;;;4992250;28;20436;-73
2022/03/29 12:31:27;;;;;;;12.10;5.27;;;;;;;;;;4993225;28;20488;-73
2022/03/29 12:33:53;;;;;;;12.13;5.33;;;;;;;;;;5003417;22;20237;-72
2022/03/29 12:36:19;;;;;;;12.20;4.80;;;;;;;;;;4992251;28;20448;-72
2022/03/29 12:38:46;;;;;;;12.30;4.67;;;;;;;;;;4992063;28;20467;-72
2022/03/29 12:41:13;;;;;;;11.47;5.07;;;;;;;;;;4997053;28;20177;-71
2022/03/29 12:43:51;;;;;;;14.03;5.33;;;;;;;;;;4996423;28;20456;-72
2022/03/29 12:46:16;;;;;;;11.80;6.10;;;;;;;;;;4993983;28;20476;-72
2022/03/29 12:48:48;;;;;;;9.50;5.60;;;;;;;;;;4994364;28;20499;-74
2022/03/29 12:51:13;;;;;;;12.20;5.70;;;;;;;;;;4994148;28;20200;-74
2022/03/29 12:53:38;;;;;;;10.70;5.20;;;;;;;;;;4994017;28;20495;-72
2022/03/29 12:56:09;;;;;;;10.37;6.57;;;;;;;;;;4996250;28;20181;-73
2022/03/29 12:58:35;;;;;;;14.93;6.60;;;;;;;;;;4996571;28;20498;-72
2022/03/29 13:01:01;;;;;;;11.30;6.10;;;;;;;;;;4995149;28;20443;-73
2022/03/29 13:03:26;;;;;;;11.77;5.97;;;;;;;;;;4991520;28;20460;-72
2022/03/29 13:05:52;;;;;;;10.90;5.83;;;;;;;;;;4996580;28;20204;-74
2022/03/29 13:08:21;;;;;;;14.63;6.67;;;;;;;;;;4994356;28;20270;-74
2022/03/29 13:10:48;;;;;;;13.23;6.00;;;;;;;;;;4998703;28;20207;-73
2022/03/29 13:13:21;;;;;;;12.63;6.30;;;;;;;;;;4994208;28;20554;-73
2022/03/29 13:16:13;;;;;;;15.20;6.67;;;;;;;;;;4996110;28;20447;-73
2022/03/29 13:18:40;;;;;;;11.90;6.93;;;;;;;;;;4991580;28;20453;-73
2022/03/29 13:21:14;;;;;;;16.13;6.57;;;;;;;;;;4987480;28;20443;-74
2022/03/29 13:23:44;;;;;;;10.60;5.40;;;;;;;;;;4989469;28;20972;-73
2022/03/29 13:26:11;;;;;;;11.93;5.40;;;;;;;;;;4992647;28;20464;-74
2022/03/29 13:28:37;;;;;;;12.70;5.70;;;;;;;;;;4998090;28;20428;-72
2022/03/29 13:31:03;;;;;;;14.30;6.03;;;;;;;;;;4999155;28;20443;-75
2022/03/29 13:33:28;;;;;;;9.90;5.70;;;;;;;;;;4995018;28;20470;-74
2022/03/29 13:35:54;;;;;;;10.20;5.27;;;;;;;;;;4996166;28;20432;-71
2022/03/29 13:38:20;;;;;;;9.10;4.90;;;;;;;;;;4995295;28;20274;-72
2022/03/29 13:40:46;;;;;;;11.90;6.30;;;;;;;;;;5002544;28;20181;-70
2022/03/29 13:43:12;;;;;;;9.77;5.53;;;;;;;;;;4988857;28;20193;-70
2022/03/29 13:45:37;;;;;;;11.43;5.37;;;;;;;;;;4990114;28;20529;-72
2022/03/29 13:48:03;;;;;;;12.43;5.17;;;;;;;;;;4993848;28;20254;-70
2022/03/29 13:50:29;;;;;;;14.60;6.00;;;;;;;;;;4994612;28;20296;-73
2022/03/29 13:52:54;;;;;;;9.73;5.10;;;;;;;;;;4988233;28;20186;-71
2022/03/29 13:55:19;;;;;;;13.20;4.40;;;;;;;;;;4997708;28;20494;-74
2022/03/29 13:57:45;;;;;;;11.13;4.73;;;;;;;;;;4989461;28;20180;-72
2022/03/29 14:00:12;;;;;;;8.70;4.87;;;;;;;;;;4992014;28;20181;-72
2022/03/29 14:02:37;;;;;;;10.20;5.30;;;;;;;;;;4992600;28;20192;-72
2022/03/29 14:05:03;;;;;;;8.00;4.50;;;;;;;;;;4994030;28;20455;-73
2022/03/29 14:07:28;;;;;;;9.70;5.60;;;;;;;;;;4994679;28;20288;-74
2022/03/29 14:09:55;;;;;;;7.77;4.57;;;;;;;;;;4991600;28;20279;-71
2022/03/29 14:12:20;;;;;;;8.87;4.47;;;;;;;;;;4999119;28;20650;-72
2022/03/29 14:14:45;;;;;;;9.10;4.60;;;;;;;;;;4999881;28;20463;-70
2022/03/29 14:17:11;;;;;;;9.17;4.80;;;;;;;;;;4997657;28;20671;-71
2022/03/29 14:19:37;;;;;;;13.23;5.53;;;;;;;;;;4999108;28;20189;-72
2022/03/29 14:22:03;;;;;;;13.77;5.10;;;;;;;;;;4997066;28;20626;-71
2022/03/29 14:24:28;;;;;;;13.23;5.07;;;;;;;;;;4998135;28;20452;-71
2022/03/29 14:26:57;;;;;;;11.70;4.43;;;;;;;;;;4998307;28;20258;-71
2022/03/29 14:29:22;;;;;;;13.00;5.37;;;;;;;;;;4997889;28;20181;-72
2022/03/29 14:31:48;;;;;;;8.53;4.50;;;;;;;;;;4992594;28;20443;-71
2022/03/29 14:34:13;;;;;;;12.10;4.70;;;;;;;;;;4994203;28;20216;-70